createdAt,value
2023-12-03T00:01:37.815Z,99820.00
2023-12-03T00:04:12.157Z,99827.20
2023-12-03T00:06:47.668Z,99828.80
2023-12-03T00:09:21.625Z,99829.20
2023-12-03T00:11:55.558Z,99830.00
2023-12-03T00:14:29.779Z,99829.40
2023-12-03T00:17:03.876Z,99839.80
2023-12-03T00:19:37.695Z,99842.20
2023-12-03T00:22:12.117Z,99839.40
2023-12-03T00:24:45.962Z,99839.00
2023-12-03T00:27:19.874Z,99840.40
2023-12-03T00:29:53.562Z,99845.00
2023-12-03T00:32:28.335Z,99842.80
2023-12-03T00:35:02.853Z,99847.20
2023-12-03T00:37:36.675Z,99852.40
2023-12-03T00:40:15.137Z,99854.20
2023-12-03T00:42:53.060Z,99857.80
2023-12-03T00:45:53.308Z,99855.80
2023-12-03T00:48:27.896Z,99854.60
2023-12-03T00:51:03.230Z,99868.20
2023-12-03T00:53:36.983Z,99872.80
2023-12-03T00:56:14.089Z,99872.40
2023-12-03T00:58:48.108Z,99873.60
2023-12-03T01:01:26.039Z,99878.60
2023-12-03T01:04:00.501Z,99878.80
2023-12-03T01:06:34.497Z,99887.40
2023-12-03T01:09:10.059Z,99891.60
2023-12-03T01:11:46.881Z,99892.60
2023-12-03T01:14:20.444Z,99898.20
2023-12-03T01:16:54.468Z,99898.20
2023-12-03T01:19:28.214Z,99911.20
2023-12-03T01:22:02.409Z,99906.40
2023-12-03T01:24:36.156Z,99908.40
2023-12-03T01:27:10.156Z,99910.80
2023-12-03T01:29:44.430Z,99914.20
2023-12-03T01:32:18.150Z,99911.20
2023-12-03T01:34:51.890Z,99920.00
2023-12-03T01:37:25.927Z,99919.20
2023-12-03T01:40:00.846Z,99920.80
2023-12-03T01:42:36.109Z,99917.00
2023-12-03T01:45:12.598Z,99920.00
2023-12-03T01:47:46.960Z,99919.60
2023-12-03T01:50:22.608Z,99922.20
2023-12-03T01:52:58.181Z,99922.80
2023-12-03T01:55:32.984Z,99917.20
2023-12-03T01:58:08.122Z,99921.80
2023-12-03T02:00:41.878Z,99921.60
2023-12-03T02:03:17.617Z,99923.40
2023-12-03T02:06:04.689Z,99923.80
2023-12-03T02:08:39.661Z,99928.80
2023-12-03T02:11:16.841Z,99923.20
2023-12-03T02:13:52.974Z,99926.60
2023-12-03T02:16:26.737Z,99930.80
2023-12-03T02:19:00.640Z,99933.20
2023-12-03T02:21:34.941Z,99941.00
2023-12-03T02:24:09.848Z,99934.20
2023-12-03T02:26:44.314Z,99941.20
2023-12-03T02:29:18.034Z,99940.20
2023-12-03T02:31:51.922Z,99943.40
2023-12-03T02:34:26.557Z,99953.20
2023-12-03T02:37:00.436Z,99960.40
2023-12-03T02:39:43.525Z,99955.00
2023-12-03T02:42:17.406Z,99962.80
2023-12-03T02:44:51.108Z,99964.20
2023-12-03T02:47:25.405Z,99973.40
2023-12-03T02:49:59.117Z,99966.60
2023-12-03T02:52:32.938Z,99970.40
2023-12-03T02:55:08.466Z,99965.20
2023-12-03T02:57:42.066Z,99969.00
2023-12-03T03:00:18.547Z,99977.00
2023-12-03T03:02:52.746Z,99976.40
2023-12-03T03:05:26.934Z,99979.60
2023-12-03T03:08:01.298Z,99983.40
2023-12-03T03:10:35.047Z,99985.00
2023-12-03T03:13:09.975Z,99984.20
2023-12-03T03:15:45.912Z,99988.20
2023-12-03T03:18:19.868Z,99993.60
2023-12-03T03:20:53.530Z,99995.80
2023-12-03T03:23:27.250Z,99998.20
2023-12-03T03:26:00.873Z,99997.80
2023-12-03T03:28:34.758Z,100003.20
2023-12-03T03:31:11.877Z,100006.80
2023-12-03T03:33:45.999Z,100004.80
2023-12-03T03:36:20.004Z,100007.80
2023-12-03T03:38:54.144Z,100015.20
2023-12-03T03:41:27.929Z,100013.40
2023-12-03T03:44:01.893Z,100013.20
2023-12-03T03:46:35.935Z,100020.80
2023-12-03T03:49:11.920Z,100022.60
2023-12-03T03:51:49.116Z,100023.80
2023-12-03T03:54:49.193Z,100029.60
2023-12-03T03:57:23.231Z,100031.20
2023-12-03T03:59:57.010Z,100035.80
2023-12-03T04:02:30.854Z,100033.20
2023-12-03T04:05:05.478Z,100034.20
2023-12-03T04:07:39.725Z,100035.60
2023-12-03T04:10:14.328Z,100042.40
2023-12-03T04:12:49.183Z,100044.00
2023-12-03T04:15:23.179Z,100050.60
2023-12-03T04:17:57.114Z,100057.80
2023-12-03T04:20:30.964Z,100048.60
2023-12-03T04:23:04.927Z,100061.60
2023-12-03T04:25:41.956Z,100064.40
2023-12-03T04:28:15.689Z,100061.40
2023-12-03T04:30:49.390Z,100067.80
2023-12-03T04:33:23.054Z,100076.40
2023-12-03T04:35:56.937Z,100078.80
2023-12-03T04:38:30.937Z,100088.40
2023-12-03T04:41:04.751Z,100090.40
2023-12-03T04:43:38.543Z,100095.40
2023-12-03T04:46:12.969Z,100098.00
2023-12-03T04:48:47.077Z,100099.80
2023-12-03T04:51:22.943Z,100096.60
2023-12-03T04:53:56.747Z,100099.40
2023-12-03T04:56:31.614Z,100104.80
2023-12-03T04:59:06.058Z,100111.20
2023-12-03T05:01:40.122Z,100112.80
2023-12-03T05:04:13.927Z,100117.00
2023-12-03T05:06:47.962Z,100123.00
2023-12-03T05:09:21.804Z,100117.40
2023-12-03T05:11:55.485Z,100127.40
2023-12-03T05:14:34.845Z,100126.20
2023-12-03T05:17:09.431Z,100134.40
2023-12-03T05:19:46.677Z,100139.40
2023-12-03T05:22:20.456Z,100139.60
2023-12-03T05:24:54.255Z,100144.20
2023-12-03T05:27:28.151Z,100148.60
2023-12-03T05:30:05.120Z,100150.80
2023-12-03T05:32:39.496Z,100160.40
2023-12-03T05:35:14.593Z,100157.00
2023-12-03T05:37:48.516Z,100163.80
2023-12-03T05:40:22.184Z,100169.00
2023-12-03T05:42:56.137Z,100165.40
2023-12-03T05:45:30.055Z,100177.00
2023-12-03T05:48:04.061Z,100176.20
2023-12-03T05:50:38.195Z,100178.20
2023-12-03T05:53:12.019Z,100183.60
2023-12-03T05:55:45.915Z,100183.80
2023-12-03T05:58:20.431Z,100190.00
2023-12-03T06:00:54.597Z,100187.80
2023-12-03T06:03:28.527Z,100197.80
2023-12-03T06:06:04.016Z,100194.20
2023-12-03T06:08:37.852Z,100195.60
2023-12-03T06:11:12.151Z,100199.00
2023-12-03T06:13:46.278Z,100196.40
2023-12-03T06:16:22.066Z,100197.80
2023-12-03T06:18:56.495Z,100197.80
2023-12-03T06:21:30.395Z,100207.60
2023-12-03T06:24:04.737Z,100209.80
2023-12-03T06:26:38.612Z,100220.80
2023-12-03T06:29:12.418Z,100218.80
2023-12-03T06:34:52.454Z,100230.40
2023-12-03T06:37:29.176Z,100235.80
2023-12-03T06:40:03.062Z,100235.60
2023-12-03T06:42:36.932Z,100238.00
2023-12-03T06:45:13.961Z,100239.60
2023-12-03T06:47:47.811Z,100243.40
2023-12-03T06:50:21.537Z,100252.00
2023-12-03T06:52:55.291Z,100251.80
2023-12-03T06:55:29.057Z,100257.80
2023-12-03T06:58:04.955Z,100257.80
2023-12-03T07:00:38.758Z,100260.60
2023-12-03T07:03:12.742Z,100265.60
2023-12-03T07:05:46.553Z,100269.60
2023-12-03T07:08:20.184Z,100269.40
2023-12-03T07:10:54.772Z,100273.20
2023-12-03T07:13:28.574Z,100281.40
2023-12-03T07:16:02.836Z,100289.20
2023-12-03T07:18:36.547Z,100289.40
2023-12-03T07:21:12.927Z,100295.80
2023-12-03T07:23:47.201Z,100298.60
2023-12-03T07:26:21.164Z,100301.00
2023-12-03T07:28:54.754Z,100305.40
2023-12-03T07:31:28.752Z,100302.60
2023-12-03T07:34:03.106Z,100304.60
2023-12-03T07:36:37.284Z,100305.20
2023-12-03T07:39:13.282Z,100314.00
2023-12-03T07:41:53.550Z,100313.60
2023-12-03T07:44:28.615Z,100318.40
2023-12-03T07:47:11.900Z,100312.80
2023-12-03T07:50:11.895Z,100323.40
2023-12-03T07:52:47.208Z,100332.40
2023-12-03T07:55:21.856Z,100332.60
2023-12-03T07:57:55.899Z,100338.00
2023-12-03T08:00:30.355Z,100344.60
2023-12-03T08:03:10.272Z,100350.60
2023-12-03T08:05:46.925Z,100353.20
2023-12-03T08:08:20.734Z,100351.60
2023-12-03T08:10:55.038Z,100361.20
2023-12-03T08:13:29.079Z,100366.20
2023-12-03T08:16:03.936Z,100367.80
2023-12-03T08:18:41.485Z,100370.60
2023-12-03T08:21:16.325Z,100372.80
2023-12-03T08:23:50.561Z,100379.40
2023-12-03T08:26:25.780Z,100384.60
2023-12-03T08:29:01.321Z,100380.40
2023-12-03T08:31:36.473Z,100383.40
2023-12-03T08:34:13.448Z,100389.60
2023-12-03T08:36:47.304Z,100393.40
2023-12-03T08:39:21.533Z,100403.40
2023-12-03T08:41:55.533Z,100407.00
2023-12-03T08:44:30.227Z,100410.40
2023-12-03T08:47:07.415Z,100412.80
2023-12-03T08:49:41.229Z,100416.40
2023-12-03T08:52:16.941Z,100418.40
2023-12-03T08:54:50.749Z,100424.80
2023-12-03T08:57:25.113Z,100427.80
2023-12-03T08:59:59.391Z,100424.40
2023-12-03T09:02:33.465Z,100433.80
2023-12-03T09:05:08.993Z,100432.20
2023-12-03T09:08:07.811Z,100437.60
2023-12-03T09:11:41.407Z,100435.40
2023-12-03T09:14:44.847Z,100445.80
2023-12-03T09:17:18.809Z,100450.80
2023-12-03T09:19:52.854Z,100447.80
2023-12-03T09:22:26.565Z,100451.20
2023-12-03T09:29:01.152Z,100462.20
2023-12-03T09:50:17.411Z,100472.00
2023-12-03T09:52:58.584Z,100464.80
2023-12-03T09:55:49.870Z,100464.80
2023-12-03T09:58:26.527Z,100472.20
2023-12-03T10:01:08.720Z,100468.20
2023-12-03T10:03:44.853Z,100467.20
2023-12-03T10:06:27.392Z,100468.40
2023-12-03T10:09:04.569Z,100468.80
2023-12-03T10:11:52.685Z,100466.40
2023-12-03T10:14:30.028Z,100475.40
2023-12-03T10:17:04.154Z,100473.80
2023-12-03T10:19:48.505Z,100474.20
2023-12-03T10:22:34.628Z,100477.60
2023-12-03T10:25:13.641Z,100470.20
2023-12-03T10:27:53.970Z,100472.00
2023-12-03T10:30:38.941Z,100473.60
2023-12-03T10:33:35.025Z,100477.60
2023-12-03T10:36:11.988Z,100473.00
2023-12-03T10:38:50.843Z,100484.00
2023-12-03T10:41:29.051Z,100483.20
2023-12-03T10:44:04.882Z,100484.00
2023-12-03T10:46:49.022Z,100481.40
2023-12-03T10:49:37.193Z,100489.00
2023-12-03T10:52:12.466Z,100485.00
2023-12-03T10:54:57.452Z,100485.80
2023-12-03T10:57:46.411Z,100488.20
2023-12-03T11:00:27.448Z,100487.80
2023-12-03T11:03:14.681Z,100489.20
2023-12-03T11:06:03.145Z,100471.80
2023-12-03T11:08:53.244Z,100487.20
2023-12-03T11:11:36.307Z,100485.20
2023-12-03T11:14:18.666Z,100483.40
2023-12-03T11:17:16.542Z,100488.20
2023-12-03T11:20:08.225Z,100492.20
2023-12-03T11:23:16.166Z,100503.60
2023-12-03T11:26:01.773Z,100493.20
2023-12-03T11:28:59.665Z,100522.60
2023-12-03T11:31:37.726Z,100493.60
2023-12-03T11:34:17.018Z,100500.20
2023-12-03T11:36:56.889Z,100496.20
2023-12-03T11:39:35.274Z,100515.20
2023-12-03T11:42:30.814Z,100517.80
2023-12-03T11:45:24.077Z,100521.00
2023-12-03T11:48:17.848Z,100516.00
2023-12-03T11:51:00.244Z,100520.00
2023-12-03T11:54:09.667Z,100518.60
2023-12-03T11:56:43.903Z,100518.60
2023-12-03T11:59:19.311Z,100521.40
2023-12-03T12:01:53.104Z,100518.80
2023-12-03T12:04:30.756Z,100520.00
2023-12-03T12:07:21.403Z,100522.80
2023-12-03T12:09:55.648Z,100525.60
2023-12-03T12:12:30.669Z,100528.40
2023-12-03T12:15:06.285Z,100530.60
2023-12-03T12:17:43.840Z,100539.20
2023-12-03T12:20:30.700Z,100536.80
2023-12-03T12:23:05.543Z,100537.40
2023-12-03T12:25:40.048Z,100539.60
2023-12-03T12:28:14.658Z,100546.00
2023-12-03T12:30:51.290Z,100550.40
2023-12-03T12:33:25.620Z,100551.80
2023-12-03T12:36:09.688Z,100547.40
2023-12-03T12:38:47.218Z,100550.20
2023-12-03T12:41:21.283Z,100549.80
2023-12-03T12:44:03.797Z,100553.40
2023-12-03T12:46:37.728Z,100549.60
2023-12-03T12:49:31.922Z,100552.00
2023-12-03T12:52:18.198Z,100547.00
2023-12-03T12:54:59.027Z,100546.20
2023-12-03T12:57:46.198Z,100552.20
2023-12-03T13:00:21.373Z,100556.00
2023-12-03T13:02:57.913Z,100548.60
2023-12-03T13:05:32.557Z,100553.00
2023-12-03T13:08:07.331Z,100554.80
2023-12-03T13:10:42.051Z,100555.60
2023-12-03T13:13:22.636Z,100546.20
2023-12-03T13:15:56.845Z,100556.80
2023-12-03T13:18:31.351Z,100555.80
2023-12-03T13:21:08.105Z,100555.80
2023-12-03T13:23:42.280Z,100554.00
2023-12-03T13:26:19.199Z,100551.40
2023-12-03T13:29:12.141Z,100557.40
2023-12-03T13:31:46.225Z,100554.60
2023-12-03T13:34:20.324Z,100554.80
2023-12-03T13:37:02.023Z,100551.60
2023-12-03T13:39:36.228Z,100556.40
2023-12-03T13:42:10.354Z,100555.00
2023-12-03T13:44:44.044Z,100552.60
2023-12-03T13:47:18.001Z,100562.40
2023-12-03T13:49:52.302Z,100570.40
2023-12-03T13:52:27.965Z,100566.60
2023-12-03T13:55:02.427Z,100572.20
2023-12-03T13:57:39.445Z,100582.80
2023-12-03T14:00:16.410Z,100582.60
2023-12-03T14:02:50.870Z,100580.60
2023-12-03T14:05:32.056Z,100584.00
2023-12-03T14:08:08.898Z,100587.80
2023-12-03T14:10:43.179Z,100579.00
2023-12-03T14:13:17.166Z,100592.80
2023-12-03T14:15:51.092Z,100589.00
2023-12-03T14:18:25.403Z,100598.20
2023-12-03T14:20:59.431Z,100599.60
2023-12-03T14:23:35.833Z,100594.80
2023-12-03T14:26:11.501Z,100598.60
2023-12-03T14:29:15.122Z,100607.80
2023-12-03T14:31:54.509Z,100604.20
2023-12-03T14:34:33.633Z,100604.80
2023-12-03T14:37:08.450Z,100613.20
2023-12-03T14:39:45.589Z,100613.40
2023-12-03T14:42:20.117Z,100618.80
2023-12-03T14:44:54.119Z,100623.80
2023-12-03T14:47:28.692Z,100621.40
2023-12-03T14:50:03.479Z,100627.80
2023-12-03T14:52:37.537Z,100624.20
2023-12-03T14:55:13.310Z,100630.80
2023-12-03T14:57:48.784Z,100633.20
2023-12-03T15:00:27.674Z,100632.20
2023-12-03T15:03:01.462Z,100633.40
2023-12-03T15:05:35.864Z,100636.40
2023-12-03T15:08:10.311Z,100641.60
2023-12-03T15:10:49.072Z,100639.40
2023-12-03T15:13:23.091Z,100636.40
2023-12-03T15:15:57.023Z,100640.00
2023-12-03T15:22:49.328Z,100651.60
2023-12-03T15:40:53.852Z,100661.20
2023-12-03T16:14:27.565Z,100677.40
2023-12-03T16:17:35.705Z,100680.20
2023-12-03T16:20:24.168Z,100682.60
2023-12-03T16:24:11.222Z,100685.00
2023-12-03T16:27:35.350Z,100686.80
2023-12-03T16:30:13.214Z,100686.80
2023-12-03T16:32:51.101Z,100688.20
2023-12-03T16:35:41.031Z,100689.60
2023-12-03T16:38:14.885Z,100689.20
2023-12-03T16:40:48.908Z,100692.00
2023-12-03T16:43:23.463Z,100694.20
2023-12-03T16:45:57.857Z,100695.40
2023-12-03T16:48:35.320Z,100696.20
2023-12-03T16:51:14.018Z,100702.40
2023-12-03T16:53:48.718Z,100701.60
2023-12-03T16:56:22.937Z,100703.60
2023-12-03T16:59:24.849Z,100699.60
2023-12-03T17:05:41.450Z,100704.60
2023-12-03T17:08:23.434Z,100701.40
2023-12-03T17:11:05.517Z,100708.60
2023-12-03T17:13:39.792Z,100712.00
2023-12-03T17:16:38.073Z,100716.80
2023-12-03T17:19:54.221Z,100716.80
2023-12-03T17:26:20.389Z,100715.40
2023-12-03T17:29:12.606Z,100720.00
2023-12-03T17:31:54.964Z,100716.40
2023-12-03T17:34:30.399Z,100719.80
2023-12-03T17:37:09.893Z,100720.20
2023-12-03T17:39:57.272Z,100722.40
2023-12-03T17:42:31.490Z,100716.60
2023-12-03T17:45:09.936Z,100715.40
2023-12-03T17:47:53.246Z,100720.60
2023-12-03T17:50:28.826Z,100722.20
2023-12-03T17:53:05.490Z,100722.80
2023-12-03T17:55:43.665Z,100724.40
2023-12-03T17:58:27.117Z,100728.60
2023-12-03T18:01:05.224Z,100727.60
2023-12-03T18:04:28.304Z,100734.60
2023-12-03T18:07:03.769Z,100736.80
2023-12-03T18:09:43.253Z,100737.00
2023-12-03T18:12:19.321Z,100743.00
2023-12-03T18:14:55.450Z,100748.20
2023-12-03T18:17:30.266Z,100751.00
2023-12-03T18:20:05.788Z,100753.20
2023-12-03T18:22:42.677Z,100752.40
2023-12-03T18:25:20.063Z,100755.00
2023-12-03T18:27:54.626Z,100750.00
2023-12-03T18:30:32.599Z,100751.80
2023-12-03T18:33:24.458Z,100751.80
2023-12-03T18:36:01.897Z,100749.80
2023-12-03T18:38:36.157Z,100746.40
2023-12-03T18:41:12.205Z,100746.20
2023-12-03T18:43:46.349Z,100748.60
2023-12-03T18:46:24.973Z,100740.00
2023-12-03T18:48:59.162Z,100741.20
2023-12-03T18:51:34.136Z,100740.80
2023-12-03T18:54:10.397Z,100740.20
2023-12-03T18:56:49.071Z,100739.80
2023-12-03T18:59:23.256Z,100738.60
2023-12-03T19:02:15.344Z,100738.20
2023-12-03T19:04:49.452Z,100740.80
2023-12-03T19:07:25.168Z,100747.20
2023-12-03T19:10:00.268Z,100746.20
2023-12-03T19:12:34.911Z,100739.20
2023-12-03T19:15:11.642Z,100746.40
2023-12-03T19:17:45.713Z,100743.80
2023-12-03T19:20:19.969Z,100744.40
2023-12-03T19:22:53.650Z,100743.20
2023-12-03T19:25:28.196Z,100744.80
2023-12-03T19:28:02.502Z,100744.80
2023-12-03T19:30:37.351Z,100751.80
2023-12-03T19:33:11.616Z,100753.80
2023-12-03T19:35:45.473Z,100753.00
2023-12-03T19:38:19.426Z,100752.60
2023-12-03T19:40:53.337Z,100758.60
2023-12-03T19:43:28.172Z,100758.20
2023-12-03T19:46:02.234Z,100759.60
2023-12-03T19:48:38.645Z,100761.40
2023-12-03T19:51:14.339Z,100759.80
2023-12-03T19:53:49.071Z,100761.00
2023-12-03T19:56:23.659Z,100761.80
2023-12-03T19:58:59.139Z,100765.40
2023-12-03T20:01:33.659Z,100768.40
2023-12-03T20:04:08.007Z,100773.20
2023-12-03T20:06:42.446Z,100772.80
2023-12-03T20:09:19.873Z,100771.20
2023-12-03T20:11:54.054Z,100771.00
2023-12-03T20:14:28.637Z,100779.20
2023-12-03T20:17:04.102Z,100781.20
2023-12-03T20:19:53.297Z,100783.00
2023-12-03T20:22:45.975Z,100784.80
2023-12-03T20:25:22.303Z,100776.40
2023-12-03T20:27:58.631Z,100773.40
2023-12-03T20:30:43.196Z,100773.00
2023-12-03T20:33:21.348Z,100776.20
2023-12-03T20:36:11.927Z,100777.80
2023-12-03T20:39:01.743Z,100784.20
2023-12-03T20:41:37.891Z,100779.00
2023-12-03T20:47:31.704Z,100782.60
2023-12-03T20:51:30.187Z,100777.80
2023-12-03T20:54:34.627Z,100785.40
2023-12-03T21:00:34.516Z,100783.00
2023-12-03T21:03:09.398Z,100783.40
2023-12-03T21:05:46.092Z,100776.60
2023-12-03T21:08:22.531Z,100784.60
2023-12-03T21:10:57.907Z,100780.80
2023-12-03T21:13:32.781Z,100780.20
2023-12-03T21:16:07.832Z,100771.80
2023-12-03T21:18:41.951Z,100775.40
2023-12-03T21:21:22.552Z,100774.00
2023-12-03T21:23:57.216Z,100771.00
2023-12-03T21:26:31.184Z,100771.20
2023-12-03T21:29:07.502Z,100762.80
2023-12-03T21:31:46.051Z,100768.00
2023-12-03T21:34:20.774Z,100768.40
2023-12-03T21:36:55.656Z,100777.80
2023-12-03T21:39:33.358Z,100775.80
2023-12-03T21:42:30.192Z,100772.00
2023-12-03T21:45:08.253Z,100780.60
2023-12-03T21:47:52.948Z,100783.00
2023-12-03T21:50:31.918Z,100781.40
2023-12-03T21:53:09.989Z,100782.40
2023-12-03T21:55:45.496Z,100783.40
2023-12-03T21:58:23.427Z,100787.40
2023-12-03T22:00:58.798Z,100792.80
2023-12-03T22:03:35.711Z,100791.00
2023-12-03T22:06:11.742Z,100796.60
2023-12-03T22:08:45.809Z,100793.00
2023-12-03T22:11:19.400Z,100791.60
2023-12-03T22:13:54.976Z,100790.00
2023-12-03T22:16:29.129Z,100788.00
2023-12-03T22:19:05.118Z,100787.40
2023-12-03T22:21:38.884Z,100792.40
2023-12-03T22:24:13.375Z,100794.60
2023-12-03T22:26:48.031Z,100795.60
2023-12-03T22:29:29.843Z,100792.40
2023-12-03T22:32:13.438Z,100793.40
2023-12-03T22:34:47.231Z,100796.40
2023-12-03T22:37:21.257Z,100794.60
2023-12-03T22:39:55.651Z,100796.60
2023-12-03T22:42:29.509Z,100793.40
2023-12-03T22:45:05.263Z,100796.20
2023-12-03T22:47:39.809Z,100794.60
2023-12-03T22:50:14.771Z,100794.80
2023-12-03T22:52:50.859Z,100801.00
2023-12-03T22:55:25.388Z,100798.40
2023-12-03T22:57:59.287Z,100803.60
2023-12-03T23:00:34.765Z,100809.00
2023-12-03T23:03:08.816Z,100802.00
2023-12-03T23:05:45.562Z,100796.40
2023-12-03T23:08:20.998Z,100797.80
2023-12-03T23:10:55.356Z,100802.00
2023-12-03T23:13:29.710Z,100798.20
2023-12-03T23:16:13.215Z,100800.40
2023-12-03T23:18:47.866Z,100797.40
2023-12-03T23:21:22.053Z,100790.80
2023-12-03T23:23:55.559Z,100791.40
2023-12-03T23:26:29.397Z,100790.80
2023-12-03T23:29:04.812Z,100787.00
2023-12-03T23:31:38.999Z,100787.40
2023-12-03T23:34:15.109Z,100791.40
2023-12-03T23:36:50.768Z,100790.00
2023-12-03T23:39:24.420Z,100786.20
2023-12-03T23:41:59.347Z,100790.80
2023-12-03T23:44:33.111Z,100791.60
2023-12-03T23:47:07.791Z,100795.40
2023-12-03T23:49:41.424Z,100797.00
2023-12-03T23:52:18.018Z,100790.00
2023-12-03T23:54:51.720Z,100795.80
2023-12-03T23:57:25.814Z,100785.80
2023-12-03T23:59:59.632Z,100784.60
